createdAt,value
2018-05-03T18:26:42.014Z,96890
2018-05-03T18:29:22.233Z,96893
2018-05-03T18:32:02.779Z,96886
2018-05-03T18:34:43.213Z,96888
2018-05-03T18:37:24.797Z,96905
2018-05-03T18:40:05.262Z,96934
2018-05-03T18:42:45.588Z,96961
2018-05-03T18:45:27.154Z,96976
2018-05-03T18:48:07.705Z,96990
2018-05-03T18:50:48.783Z,97015
2018-05-03T18:53:29.968Z,97017
2018-05-03T18:56:10.437Z,97024
2018-05-03T18:58:50.753Z,97019
2018-05-03T19:01:31.046Z,97020
2018-05-03T19:04:11.370Z,97000
2018-05-03T19:06:51.689Z,96984
2018-05-03T19:09:32.976Z,96970
2018-05-03T19:12:14.025Z,96981
2018-05-03T19:14:55.125Z,96985
2018-05-03T19:17:36.172Z,96987
2018-05-03T19:20:16.435Z,97011
2018-05-03T19:22:57.725Z,97022
2018-05-03T19:25:41.037Z,97039
2018-05-03T19:28:21.575Z,97047
2018-05-03T19:31:02.389Z,97058
2018-05-03T19:33:43.595Z,97052
2018-05-03T19:36:30.458Z,97047
2018-05-03T19:39:10.909Z,97021
2018-05-03T19:41:52.148Z,97003
2018-05-03T19:44:33.938Z,96989
2018-05-03T19:47:14.445Z,97013
2018-05-03T19:49:56.705Z,96996
2018-05-03T19:52:47.336Z,97010
2018-05-03T19:55:30.425Z,97002
2018-05-03T19:58:10.905Z,97021
2018-05-03T20:00:51.377Z,97024
2018-05-03T20:03:31.752Z,97032
2018-05-03T20:06:12.894Z,97036
2018-05-03T20:08:54.113Z,97044
2018-05-03T20:11:35.465Z,97042
2018-05-03T20:14:16.469Z,97032
2018-05-03T20:16:58.122Z,97024
2018-05-03T20:19:40.309Z,97042
2018-05-03T20:22:20.983Z,97057
2018-05-03T20:25:02.180Z,97061
2018-05-03T20:27:43.432Z,97071
2018-05-03T20:30:27.056Z,97066
2018-05-03T20:33:08.345Z,97073
2018-05-03T20:35:48.684Z,97072
2018-05-03T20:38:29.054Z,97071
2018-05-03T20:41:10.190Z,97090
2018-05-03T20:43:50.521Z,97083
2018-05-03T20:46:31.129Z,97080
2018-05-03T20:49:11.568Z,97070
2018-05-03T20:51:51.941Z,97064
2018-05-03T20:54:33.779Z,97068
2018-05-03T20:57:14.233Z,97066
2018-05-03T20:59:56.293Z,97066
2018-05-03T21:02:36.950Z,97053
2018-05-03T21:05:17.302Z,97048
2018-05-03T21:07:57.705Z,97039
2018-05-03T21:10:38.157Z,97042
2018-05-03T21:13:20.018Z,97037
2018-05-03T21:16:00.307Z,97042
2018-05-03T21:18:40.662Z,97042
2018-05-03T21:21:21.748Z,97033
2018-05-03T21:24:02.745Z,97027
2018-05-03T21:26:43.686Z,97029
2018-05-03T21:29:24.806Z,97034
2018-05-03T21:32:05.228Z,97033
2018-05-03T21:34:45.579Z,97045
2018-05-03T21:37:43.116Z,97049
2018-05-03T21:40:27.994Z,97041
2018-05-03T21:43:09.148Z,97040
2018-05-03T21:45:49.626Z,97043
2018-05-03T21:48:29.919Z,97033
2018-05-03T21:51:10.270Z,97021
2018-05-03T21:53:52.229Z,97028
2018-05-03T21:56:33.816Z,97033
2018-05-03T21:59:14.166Z,97035
2018-05-03T22:01:55.885Z,97042
2018-05-03T22:04:36.201Z,97044
2018-05-03T22:07:16.561Z,97045
2018-05-03T22:09:57.034Z,97043
2018-05-03T22:12:37.752Z,97046
2018-05-03T22:15:18.307Z,97062
2018-05-03T22:17:58.692Z,97054
2018-05-03T22:20:39.001Z,97047
2018-05-03T22:23:19.437Z,97049
2018-05-03T22:26:09.535Z,97065
2018-05-03T22:28:50.021Z,97066
2018-05-03T22:31:30.489Z,97070
2018-05-03T22:34:11.169Z,97081
2018-05-03T22:36:51.518Z,97079
2018-05-03T22:39:31.855Z,97068
2018-05-03T22:42:12.133Z,97066
2018-05-03T22:44:52.463Z,97067
2018-05-03T22:47:33.480Z,97059
2018-05-03T22:50:13.833Z,97068
2018-05-03T22:52:54.747Z,97077
2018-05-03T22:55:35.068Z,97070
2018-05-03T22:58:15.451Z,97081
2018-05-03T23:00:56.619Z,97087
2018-05-03T23:03:37.043Z,97089
2018-05-03T23:06:17.492Z,97095
2018-05-03T23:08:58.001Z,97102
2018-05-03T23:11:38.441Z,97106
2018-05-03T23:14:19.520Z,97110
2018-05-03T23:16:59.957Z,97116
2018-05-03T23:19:41.158Z,97123
2018-05-03T23:22:21.340Z,97130
2018-05-03T23:25:02.292Z,97124
2018-05-03T23:27:42.730Z,97126
2018-05-03T23:30:22.944Z,97131
2018-05-03T23:33:03.594Z,97130
2018-05-03T23:35:44.649Z,97139
2018-05-03T23:38:25.785Z,97148
2018-05-03T23:41:06.113Z,97145
2018-05-03T23:43:46.596Z,97144
2018-05-03T23:46:27.472Z,97143
2018-05-03T23:49:07.924Z,97139
2018-05-03T23:51:48.233Z,97143
2018-05-03T23:54:29.049Z,97151
2018-05-03T23:57:09.377Z,97165
2018-05-03T23:59:49.673Z,97162
